Terminal Aerodrome Forecast
Issued by NWS Wilmington, OH

Current Version | Previous Version | Graphics & Text | Print | Product List | Glossary On
Versions: 1 2 3 4 5 6 7 8 9 10 11 12
377
FTUS41 KILN 211042 AAA
TAFDAY
TAF AMD
KDAY 211042Z 2111/2206 01006KT 6SM BR VCSH OVC008
      TEMPO 2111/2114 4SM -RA BR OVC008
     FM211400 36010KT P6SM SCT008 OVC012
     FM211800 36012G20KT P6SM VCSH SCT020 BKN035
     FM220000 35006KT P6SM SCT060=

USA.gov is the U.S. government's official web portal to all federal, state and local government web resources and services.